PWSweather.com
Personal Weather Stations
Station Observations
KTXROWLE6
Ravens Nest, Rowlett, TX 75089

Ravens NestRowlett, TX 75089

Lat: 32.93105, Lon: -96.57368

Elevation: 556

Station Type: Davis Vantage Pro2 6152

http://rowlett.ws

High Low Average
Temperature 45.2°F7.3°C 34.7°F1.5°C 38.7°F3.7°C
Dew Point 35.4°F1.9°C 24.9°F-3.9°C 29.5°F-1.4°C
Winds 7.6 mph 12.2 kmh 1.6 mph 2.6 kmh 5.0 mph NE8.0 kmh NE
Wind Gusts 15.0 mph24.1 kmh 4.0 mph6.4 kmh 10.0 mph16.1 kmh
Humidity 77% 64% 69%
Pressure 30.39 in1029.1 mb 30.11 in1019.6 mb -
Precipitation 0.34 in8.6 mm - -
Hour Temp Dew Point Humidity Winds Wind Gusts Pressure Precip Precip Rate Daily Precip Total
12:00 AM 45.4°F7.4°C 35.5°F1.9°C 68% 1.2 mph N1.9 kmh N 4.0 mph6.4 kmh 30.09 in1019.0 mb 0.00 in0.0 mm 0.00 in0.0 mm 0.34 in8.6 mm
12:05 AM 45.4°F7.4°C 35.8°F2.1°C 69% 1.2 mph N1.9 kmh N 3.0 mph4.8 kmh 30.09 in1019.0 mb 0.00 in0.0 mm 0.00 in0.0 mm 0.34 in8.6 mm
12:10 AM 45.4°F7.4°C 35.5°F1.9°C 68% 1.5 mph N2.4 kmh N 3.0 mph4.8 kmh 30.09 in1019.0 mb 0.00 in0.0 mm 0.00 in0.0 mm 0.34 in8.6 mm
12:15 AM 45.4°F7.4°C 35.5°F1.9°C 68% 2.0 mph N3.2 kmh N 4.0 mph6.4 kmh 30.10 in1019.3 mb 0.00 in0.0 mm 0.00 in0.0 mm 0.34 in8.6 mm
12:20 AM 45.4°F7.4°C 35.5°F1.9°C 68% 2.2 mph N3.5 kmh N 5.0 mph8.0 kmh 30.10 in1019.3 mb 0.00 in0.0 mm 0.00 in0.0 mm 0.34 in8.6 mm
12:25 AM 45.4°F7.4°C 35.5°F1.9°C 68% 2.7 mph N4.3 kmh N 6.0 mph9.7 kmh 30.10 in1019.3 mb 0.00 in0.0 mm 0.00 in0.0 mm 0.34 in8.6 mm
12:30 AM 45.6°F7.6°C 35.7°F2.1°C 68% 2.3 mph NNE3.7 kmh NNE 6.0 mph9.7 kmh 30.10 in1019.3 mb 0.00 in0.0 mm 0.00 in0.0 mm 0.34 in8.6 mm
12:35 AM 45.7°F7.6°C 35.8°F2.1°C 68% 2.4 mph NNE3.9 kmh NNE 5.0 mph8.0 kmh 30.11 in1019.6 mb 0.00 in0.0 mm 0.00 in0.0 mm 0.34 in8.6 mm
12:40 AM 45.8°F7.7°C 35.5°F1.9°C 67% 2.4 mph NNE3.9 kmh NNE 5.0 mph8.0 kmh 30.11 in1019.6 mb 0.00 in0.0 mm 0.00 in0.0 mm 0.34 in8.6 mm
12:45 AM 45.5°F7.5°C 35.2°F1.8°C 67% 2.0 mph N3.2 kmh N 5.0 mph8.0 kmh 30.11 in1019.6 mb 0.00 in0.0 mm 0.00 in0.0 mm 0.34 in8.6 mm
12:50 AM 45.2°F7.3°C 35.3°F1.8°C 68% 2.4 mph N3.9 kmh N 5.0 mph8.0 kmh 30.11 in1019.6 mb 0.00 in0.0 mm 0.00 in0.0 mm 0.34 in8.6 mm
12:55 AM 44.9°F7.2°C 35.0°F1.7°C 68% 2.1 mph N3.4 kmh N 5.0 mph8.0 kmh 30.12 in1020.0 mb 0.00 in0.0 mm 0.00 in0.0 mm 0.34 in8.6 mm
01:00 AM 44.6°F7.0°C 35.1°F1.7°C 69% 2.3 mph N3.7 kmh N 4.0 mph6.4 kmh 30.12 in1020.0 mb 0.00 in0.0 mm 0.00 in0.0 mm 0.34 in8.6 mm
01:05 AM 44.5°F6.9°C 35.0°F1.7°C 69% 2.3 mph N3.7 kmh N 5.0 mph8.0 kmh 30.11 in1019.6 mb 0.00 in0.0 mm 0.00 in0.0 mm 0.00 in0.0 mm
01:10 AM 44.6°F7.0°C 35.1°F1.7°C 69% 2.2 mph N3.5 kmh N 5.0 mph8.0 kmh 30.12 in1020.0 mb 0.00 in0.0 mm 0.00 in0.0 mm 0.00 in0.0 mm
01:15 AM 44.9°F7.2°C 35.0°F1.7°C 68% 2.3 mph NNE3.7 kmh NNE 4.0 mph6.4 kmh 30.12 in1020.0 mb 0.00 in0.0 mm 0.00 in0.0 mm 0.00 in0.0 mm
01:20 AM 45.0°F7.2°C 35.1°F1.7°C 68% 2.6 mph NNE4.2 kmh NNE 4.0 mph6.4 kmh 30.12 in1020.0 mb 0.00 in0.0 mm 0.00 in0.0 mm 0.00 in0.0 mm
01:25 AM 45.2°F7.3°C 34.9°F1.6°C 67% 2.6 mph NNE4.2 kmh NNE 4.0 mph6.4 kmh 30.12 in1020.0 mb 0.00 in0.0 mm 0.00 in0.0 mm 0.00 in0.0 mm
01:30 AM 45.2°F7.3°C 34.9°F1.6°C 67% 2.6 mph NNE4.2 kmh NNE 4.0 mph6.4 kmh 30.12 in1020.0 mb 0.00 in0.0 mm 0.00 in0.0 mm 0.00 in0.0 mm
01:35 AM 45.2°F7.3°C 34.9°F1.6°C 67% 3.1 mph N5.0 kmh N 6.0 mph9.7 kmh 30.13 in1020.3 mb 0.00 in0.0 mm 0.00 in0.0 mm 0.00 in0.0 mm
01:40 AM 45.2°F7.3°C 34.9°F1.6°C 67% 5.3 mph N8.5 kmh N 10.0 mph16.1 kmh 30.13 in1020.3 mb 0.00 in0.0 mm 0.00 in0.0 mm 0.00 in0.0 mm
01:45 AM 44.9°F7.2°C 34.6°F1.4°C 67% 5.4 mph NNW8.7 kmh NNW 11.0 mph17.7 kmh 30.13 in1020.3 mb 0.00 in0.0 mm 0.00 in0.0 mm 0.00 in0.0 mm
01:50 AM 44.5°F6.9°C 34.6°F1.4°C 68% 4.5 mph N7.2 kmh N 11.0 mph17.7 kmh 30.13 in1020.3 mb 0.00 in0.0 mm 0.00 in0.0 mm 0.00 in0.0 mm
01:55 AM 44.2°F6.8°C 34.3°F1.3°C 68% 5.3 mph N8.5 kmh N 10.0 mph16.1 kmh 30.13 in1020.3 mb 0.00 in0.0 mm 0.00 in0.0 mm 0.00 in0.0 mm
02:00 AM 43.9°F6.6°C 34.4°F1.3°C 69% 4.9 mph NNW7.9 kmh NNW 10.0 mph16.1 kmh 30.13 in1020.3 mb 0.00 in0.0 mm 0.00 in0.0 mm 0.00 in0.0 mm
02:05 AM 43.6°F6.4°C 34.1°F1.2°C 69% 5.8 mph N9.3 kmh N 9.0 mph14.5 kmh 30.14 in1020.7 mb 0.00 in0.0 mm 0.00 in0.0 mm 0.00 in0.0 mm
02:10 AM 43.3°F6.3°C 34.2°F1.2°C 70% 5.6 mph N9.0 kmh N 9.0 mph14.5 kmh 30.14 in1020.7 mb 0.00 in0.0 mm 0.00 in0.0 mm 0.00 in0.0 mm
02:15 AM 43.1°F6.2°C 34.3°F1.3°C 71% 4.3 mph N6.9 kmh N 9.0 mph14.5 kmh 30.14 in1020.7 mb 0.00 in0.0 mm 0.00 in0.0 mm 0.00 in0.0 mm
02:20 AM 42.8°F6.0°C 34.1°F1.2°C 71% 4.5 mph N7.2 kmh N 9.0 mph14.5 kmh 30.14 in1020.7 mb 0.00 in0.0 mm 0.00 in0.0 mm 0.00 in0.0 mm
02:25 AM 42.6°F5.9°C 34.2°F1.2°C 72% 3.6 mph N5.8 kmh N 9.0 mph14.5 kmh 30.14 in1020.7 mb 0.00 in0.0 mm 0.00 in0.0 mm 0.00 in0.0 mm
02:30 AM 42.6°F5.9°C 34.2°F1.2°C 72% 4.8 mph N7.7 kmh N 11.0 mph17.7 kmh 30.14 in1020.7 mb 0.00 in0.0 mm 0.00 in0.0 mm 0.00 in0.0 mm
02:35 AM 42.8°F6.0°C 34.8°F1.6°C 73% 5.4 mph N8.7 kmh N 11.0 mph17.7 kmh 30.14 in1020.7 mb 0.00 in0.0 mm 0.00 in0.0 mm 0.00 in0.0 mm
02:40 AM 43.0°F6.1°C 34.9°F1.6°C 73% 6.6 mph N10.6 kmh N 13.0 mph20.9 kmh 30.14 in1020.7 mb 0.00 in0.0 mm 0.00 in0.0 mm 0.00 in0.0 mm
02:45 AM 42.8°F6.0°C 34.8°F1.6°C 73% 5.6 mph NNE9.0 kmh NNE 14.0 mph22.5 kmh 30.14 in1020.7 mb 0.00 in0.0 mm 0.00 in0.0 mm 0.00 in0.0 mm
02:50 AM 42.8°F6.0°C 34.8°F1.6°C 73% 5.9 mph N9.5 kmh N 14.0 mph22.5 kmh 30.15 in1021.0 mb 0.00 in0.0 mm 0.00 in0.0 mm 0.00 in0.0 mm
02:55 AM 42.7°F5.9°C 35.0°F1.7°C 74% 6.0 mph N9.7 kmh N 12.0 mph19.3 kmh 30.15 in1021.0 mb 0.00 in0.0 mm 0.00 in0.0 mm 0.00 in0.0 mm
03:00 AM 42.6°F5.9°C 34.9°F1.6°C 74% 6.4 mph NNE10.3 kmh NNE 13.0 mph20.9 kmh 30.15 in1021.0 mb 0.00 in0.0 mm 0.00 in0.0 mm 0.00 in0.0 mm
03:05 AM 42.6°F5.9°C 34.9°F1.6°C 74% 6.2 mph NNE10.0 kmh NNE 13.0 mph20.9 kmh 30.15 in1021.0 mb 0.00 in0.0 mm 0.00 in0.0 mm 0.00 in0.0 mm
03:10 AM 42.5°F5.8°C 35.1°F1.7°C 75% 6.5 mph NNE10.5 kmh NNE 12.0 mph19.3 kmh 30.15 in1021.0 mb 0.00 in0.0 mm 0.00 in0.0 mm 0.00 in0.0 mm
03:15 AM 42.4°F5.8°C 35.0°F1.7°C 75% 6.0 mph NNE9.7 kmh NNE 12.0 mph19.3 kmh 30.16 in1021.3 mb 0.00 in0.0 mm 0.00 in0.0 mm 0.00 in0.0 mm
03:20 AM 42.3°F5.7°C 35.3°F1.8°C 76% 5.5 mph NNE8.9 kmh NNE 12.0 mph19.3 kmh 30.16 in1021.3 mb 0.00 in0.0 mm 0.00 in0.0 mm 0.00 in0.0 mm
03:25 AM 42.2°F5.7°C 35.2°F1.8°C 76% 6.1 mph NNE9.8 kmh NNE 11.0 mph17.7 kmh 30.17 in1021.7 mb 0.00 in0.0 mm 0.00 in0.0 mm 0.00 in0.0 mm
03:30 AM 42.2°F5.7°C 35.2°F1.8°C 76% 5.5 mph NNE8.9 kmh NNE 11.0 mph17.7 kmh 30.16 in1021.3 mb 0.00 in0.0 mm 0.00 in0.0 mm 0.00 in0.0 mm
03:35 AM 42.1°F5.6°C 35.4°F1.9°C 77% 5.7 mph NNE9.2 kmh NNE 12.0 mph19.3 kmh 30.16 in1021.3 mb 0.00 in0.0 mm 0.00 in0.0 mm 0.00 in0.0 mm
03:40 AM 42.1°F5.6°C 35.4°F1.9°C 77% 6.2 mph NNE10.0 kmh NNE 12.0 mph19.3 kmh 30.17 in1021.7 mb 0.00 in0.0 mm 0.00 in0.0 mm 0.00 in0.0 mm
03:45 AM 42.0°F5.6°C 35.3°F1.8°C 77% 5.6 mph NNE9.0 kmh NNE 11.0 mph17.7 kmh 30.17 in1021.7 mb 0.00 in0.0 mm 0.00 in0.0 mm 0.00 in0.0 mm
03:50 AM 42.0°F5.6°C 35.0°F1.7°C 76% 6.3 mph NE10.1 kmh NE 14.0 mph22.5 kmh 30.18 in1022.0 mb 0.00 in0.0 mm 0.00 in0.0 mm 0.00 in0.0 mm
03:55 AM 41.9°F5.5°C 34.9°F1.6°C 76% 5.4 mph NNE8.7 kmh NNE 14.0 mph22.5 kmh 30.18 in1022.0 mb 0.00 in0.0 mm 0.00 in0.0 mm 0.00 in0.0 mm
04:00 AM 41.8°F5.4°C 34.8°F1.6°C 76% 5.8 mph NE9.3 kmh NE 11.0 mph17.7 kmh 30.18 in1022.0 mb 0.00 in0.0 mm 0.00 in0.0 mm 0.00 in0.0 mm
04:05 AM 41.8°F5.4°C 34.8°F1.6°C 76% 6.2 mph NE10.0 kmh NE 14.0 mph22.5 kmh 30.18 in1022.0 mb 0.00 in0.0 mm 0.00 in0.0 mm 0.00 in0.0 mm
04:10 AM 41.5°F5.3°C 34.5°F1.4°C 76% 5.6 mph NE9.0 kmh NE 14.0 mph22.5 kmh 30.18 in1022.0 mb 0.00 in0.0 mm 0.00 in0.0 mm 0.00 in0.0 mm
04:15 AM 41.5°F5.3°C 34.5°F1.4°C 76% 6.3 mph NE10.1 kmh NE 14.0 mph22.5 kmh 30.19 in1022.4 mb 0.00 in0.0 mm 0.00 in0.0 mm 0.00 in0.0 mm
04:20 AM 41.5°F5.3°C 34.5°F1.4°C 76% 6.3 mph NNE10.1 kmh NNE 14.0 mph22.5 kmh 30.19 in1022.4 mb 0.00 in0.0 mm 0.00 in0.0 mm 0.00 in0.0 mm
04:25 AM 41.5°F5.3°C 34.5°F1.4°C 76% 6.3 mph NE10.1 kmh NE 14.0 mph22.5 kmh 30.19 in1022.4 mb 0.00 in0.0 mm 0.00 in0.0 mm 0.00 in0.0 mm
04:30 AM 41.3°F5.2°C 34.3°F1.3°C 76% 6.1 mph NE9.8 kmh NE 15.0 mph24.1 kmh 30.19 in1022.4 mb 0.00 in0.0 mm 0.00 in0.0 mm 0.00 in0.0 mm
04:35 AM 41.3°F5.2°C 34.3°F1.3°C 76% 6.7 mph NE10.8 kmh NE 15.0 mph24.1 kmh 30.19 in1022.4 mb 0.00 in0.0 mm 0.00 in0.0 mm 0.00 in0.0 mm
04:40 AM 41.1°F5.1°C 34.1°F1.2°C 76% 5.4 mph NNE8.7 kmh NNE 11.0 mph17.7 kmh 30.18 in1022.0 mb 0.00 in0.0 mm 0.00 in0.0 mm 0.00 in0.0 mm
04:45 AM 41.1°F5.1°C 34.1°F1.2°C 76% 6.1 mph NE9.8 kmh NE 12.0 mph19.3 kmh 30.19 in1022.4 mb 0.00 in0.0 mm 0.00 in0.0 mm 0.00 in0.0 mm
04:50 AM 41.0°F5.0°C 33.7°F0.9°C 75% 5.4 mph NE8.7 kmh NE 12.0 mph19.3 kmh 30.19 in1022.4 mb 0.00 in0.0 mm 0.00 in0.0 mm 0.00 in0.0 mm
04:55 AM 40.8°F4.9°C 33.8°F1.0°C 76% 5.0 mph NNE8.0 kmh NNE 11.0 mph17.7 kmh 30.19 in1022.4 mb 0.00 in0.0 mm 0.00 in0.0 mm 0.00 in0.0 mm
05:00 AM 40.8°F4.9°C 33.8°F1.0°C 76% 5.0 mph NNE8.0 kmh NNE 10.0 mph16.1 kmh 30.19 in1022.4 mb 0.00 in0.0 mm 0.00 in0.0 mm 0.00 in0.0 mm
05:05 AM 40.8°F4.9°C 33.8°F1.0°C 76% 5.9 mph NNE9.5 kmh NNE 11.0 mph17.7 kmh 30.19 in1022.4 mb 0.00 in0.0 mm 0.00 in0.0 mm 0.00 in0.0 mm
05:10 AM 40.8°F4.9°C 33.8°F1.0°C 76% 6.0 mph NNE9.7 kmh NNE 12.0 mph19.3 kmh 30.19 in1022.4 mb 0.00 in0.0 mm 0.00 in0.0 mm 0.00 in0.0 mm
05:15 AM 40.8°F4.9°C 33.8°F1.0°C 76% 5.8 mph NNE9.3 kmh NNE 12.0 mph19.3 kmh 30.20 in1022.7 mb 0.00 in0.0 mm 0.00 in0.0 mm 0.00 in0.0 mm
05:20 AM 40.9°F4.9°C 33.9°F1.1°C 76% 5.7 mph NE9.2 kmh NE 11.0 mph17.7 kmh 30.20 in1022.7 mb 0.00 in0.0 mm 0.00 in0.0 mm 0.00 in0.0 mm
05:25 AM 40.9°F4.9°C 33.6°F0.9°C 75% 5.4 mph NE8.7 kmh NE 11.0 mph17.7 kmh 30.20 in1022.7 mb 0.00 in0.0 mm 0.00 in0.0 mm 0.00 in0.0 mm
05:30 AM 40.9°F4.9°C 33.6°F0.9°C 75% 7.4 mph NE11.9 kmh NE 15.0 mph24.1 kmh 30.20 in1022.7 mb 0.00 in0.0 mm 0.00 in0.0 mm 0.00 in0.0 mm
05:35 AM 40.9°F4.9°C 33.6°F0.9°C 75% 5.0 mph NE8.0 kmh NE 15.0 mph24.1 kmh 30.21 in1023.0 mb 0.00 in0.0 mm 0.00 in0.0 mm 0.00 in0.0 mm
05:40 AM 40.8°F4.9°C 33.5°F0.8°C 75% 6.2 mph NNE10.0 kmh NNE 12.0 mph19.3 kmh 30.21 in1023.0 mb 0.00 in0.0 mm 0.00 in0.0 mm 0.00 in0.0 mm
05:45 AM 40.7°F4.8°C 33.4°F0.8°C 75% 6.5 mph NNE10.5 kmh NNE 14.0 mph22.5 kmh 30.21 in1023.0 mb 0.00 in0.0 mm 0.00 in0.0 mm 0.00 in0.0 mm
05:50 AM 40.5°F4.7°C 33.2°F0.7°C 75% 4.4 mph NE7.1 kmh NE 14.0 mph22.5 kmh 30.21 in1023.0 mb 0.00 in0.0 mm 0.00 in0.0 mm 0.00 in0.0 mm
05:55 AM 40.4°F4.7°C 33.1°F0.6°C 75% 4.8 mph NE7.7 kmh NE 10.0 mph16.1 kmh 30.21 in1023.0 mb 0.00 in0.0 mm 0.00 in0.0 mm 0.00 in0.0 mm
06:00 AM 40.3°F4.6°C 33.0°F0.6°C 75% 4.5 mph NE7.2 kmh NE 11.0 mph17.7 kmh 30.21 in1023.0 mb 0.00 in0.0 mm 0.00 in0.0 mm 0.00 in0.0 mm
06:05 AM 40.1°F4.5°C 32.5°F0.3°C 74% 6.1 mph NE9.8 kmh NE 12.0 mph19.3 kmh 30.22 in1023.4 mb 0.00 in0.0 mm 0.00 in0.0 mm 0.00 in0.0 mm
06:10 AM 39.9°F4.4°C 32.3°F0.2°C 74% 5.3 mph NE8.5 kmh NE 12.0 mph19.3 kmh 30.22 in1023.4 mb 0.00 in0.0 mm 0.00 in0.0 mm 0.00 in0.0 mm
06:15 AM 39.8°F4.3°C 32.5°F0.3°C 75% 6.6 mph NE10.6 kmh NE 14.0 mph22.5 kmh 30.23 in1023.7 mb 0.00 in0.0 mm 0.00 in0.0 mm 0.00 in0.0 mm
06:20 AM 39.7°F4.3°C 32.1°F0.1°C 74% 6.6 mph NE10.6 kmh NE 14.0 mph22.5 kmh 30.23 in1023.7 mb 0.00 in0.0 mm 0.00 in0.0 mm 0.00 in0.0 mm
06:25 AM 39.7°F4.3°C 32.4°F0.2°C 75% 4.8 mph NE7.7 kmh NE 14.0 mph22.5 kmh 30.23 in1023.7 mb 0.00 in0.0 mm 0.00 in0.0 mm 0.00 in0.0 mm
06:30 AM 39.6°F4.2°C 32.3°F0.2°C 75% 4.5 mph NE7.2 kmh NE 12.0 mph19.3 kmh 30.23 in1023.7 mb 0.00 in0.0 mm 0.00 in0.0 mm 0.00 in0.0 mm
06:35 AM 39.4°F4.1°C 31.8°F-0.1°C 74% 6.6 mph NE10.6 kmh NE 13.0 mph20.9 kmh 30.24 in1024.0 mb 0.00 in0.0 mm 0.00 in0.0 mm 0.00 in0.0 mm
06:40 AM 39.3°F4.1°C 31.7°F-0.2°C 74% 7.6 mph NE12.2 kmh NE 13.0 mph20.9 kmh 30.24 in1024.0 mb 0.00 in0.0 mm 0.00 in0.0 mm 0.00 in0.0 mm
06:45 AM 39.2°F4.0°C 31.6°F-0.2°C 74% 6.3 mph NE10.1 kmh NE 13.0 mph20.9 kmh 30.24 in1024.0 mb 0.00 in0.0 mm 0.00 in0.0 mm 0.00 in0.0 mm
06:50 AM 39.1°F3.9°C 31.5°F-0.3°C 74% 4.1 mph NE6.6 kmh NE 13.0 mph20.9 kmh 30.24 in1024.0 mb 0.00 in0.0 mm 0.00 in0.0 mm 0.00 in0.0 mm
06:55 AM 39.1°F3.9°C 31.5°F-0.3°C 74% 4.2 mph NNE6.8 kmh NNE 13.0 mph20.9 kmh 30.25 in1024.4 mb 0.00 in0.0 mm 0.00 in0.0 mm 0.00 in0.0 mm
07:00 AM 39.0°F3.9°C 31.4°F-0.3°C 74% 3.9 mph NE6.3 kmh NE 9.0 mph14.5 kmh 30.25 in1024.4 mb 0.00 in0.0 mm 0.00 in0.0 mm 0.00 in0.0 mm
07:05 AM 39.0°F3.9°C 31.4°F-0.3°C 74% 3.4 mph NE5.5 kmh NE 9.0 mph14.5 kmh 30.25 in1024.4 mb 0.00 in0.0 mm 0.00 in0.0 mm 0.00 in0.0 mm
07:10 AM 38.9°F3.8°C 31.3°F-0.4°C 74% 4.0 mph NE6.4 kmh NE 9.0 mph14.5 kmh 30.25 in1024.4 mb 0.00 in0.0 mm 0.00 in0.0 mm 0.00 in0.0 mm
07:15 AM 38.8°F3.8°C 31.2°F-0.4°C 74% 4.7 mph NE7.6 kmh NE 10.0 mph16.1 kmh 30.25 in1024.4 mb 0.00 in0.0 mm 0.00 in0.0 mm 0.00 in0.0 mm
07:20 AM 38.8°F3.8°C 31.2°F-0.4°C 74% 4.0 mph NE6.4 kmh NE 10.0 mph16.1 kmh 30.25 in1024.4 mb 0.00 in0.0 mm 0.00 in0.0 mm 0.00 in0.0 mm
07:25 AM 38.7°F3.7°C 31.1°F-0.5°C 74% 4.3 mph NE6.9 kmh NE 10.0 mph16.1 kmh 30.26 in1024.7 mb 0.00 in0.0 mm 0.00 in0.0 mm 0.00 in0.0 mm
07:30 AM 38.5°F3.6°C 30.9°F-0.6°C 74% 3.8 mph NNE6.1 kmh NNE 10.0 mph16.1 kmh 30.26 in1024.7 mb 0.00 in0.0 mm 0.00 in0.0 mm 0.00 in0.0 mm
07:35 AM 38.1°F3.4°C 30.6°F-0.8°C 74% 4.9 mph NNE7.9 kmh NNE 10.0 mph16.1 kmh 30.27 in1025.1 mb 0.00 in0.0 mm 0.00 in0.0 mm 0.00 in0.0 mm
07:40 AM 37.7°F3.2°C 30.2°F-1.0°C 74% 4.4 mph NE7.1 kmh NE 10.0 mph16.1 kmh 30.27 in1025.1 mb 0.00 in0.0 mm 0.00 in0.0 mm 0.00 in0.0 mm
07:45 AM 37.6°F3.1°C 30.1°F-1.1°C 74% 3.7 mph NE6.0 kmh NE 11.0 mph17.7 kmh 30.27 in1025.1 mb 0.00 in0.0 mm 0.00 in0.0 mm 0.00 in0.0 mm
07:50 AM 37.5°F3.1°C 30.0°F-1.1°C 74% 4.0 mph NNE6.4 kmh NNE 11.0 mph17.7 kmh 30.28 in1025.4 mb 0.00 in0.0 mm 0.00 in0.0 mm 0.00 in0.0 mm
07:55 AM 37.2°F2.9°C 29.7°F-1.3°C 74% 3.6 mph NNE5.8 kmh NNE 9.0 mph14.5 kmh 30.28 in1025.4 mb 0.00 in0.0 mm 0.00 in0.0 mm 0.00 in0.0 mm
08:00 AM 37.1°F2.8°C 29.6°F-1.3°C 74% 4.3 mph NNE6.9 kmh NNE 8.0 mph12.9 kmh 30.29 in1025.7 mb 0.00 in0.0 mm 0.00 in0.0 mm 0.00 in0.0 mm
08:05 AM 37.0°F2.8°C 29.5°F-1.4°C 74% 3.3 mph NE5.3 kmh NE 8.0 mph12.9 kmh 30.30 in1026.1 mb 0.00 in0.0 mm 0.00 in0.0 mm 0.00 in0.0 mm
08:10 AM 36.8°F2.7°C 29.3°F-1.5°C 74% 4.0 mph NNE6.4 kmh NNE 7.0 mph11.3 kmh 30.30 in1026.1 mb 0.00 in0.0 mm 0.00 in0.0 mm 0.00 in0.0 mm
08:15 AM 36.6°F2.6°C 29.1°F-1.6°C 74% 5.3 mph NE8.5 kmh NE 11.0 mph17.7 kmh 30.30 in1026.1 mb 0.00 in0.0 mm 0.00 in0.0 mm 0.00 in0.0 mm
08:20 AM 36.4°F2.4°C 28.9°F-1.7°C 74% 4.7 mph NE7.6 kmh NE 11.0 mph17.7 kmh 30.30 in1026.1 mb 0.00 in0.0 mm 0.00 in0.0 mm 0.00 in0.0 mm
08:25 AM 36.4°F2.4°C 28.9°F-1.7°C 74% 4.6 mph NE7.4 kmh NE 10.0 mph16.1 kmh 30.30 in1026.1 mb 0.00 in0.0 mm 0.00 in0.0 mm 0.00 in0.0 mm
08:30 AM 36.4°F2.4°C 28.9°F-1.7°C 74% 4.5 mph NE7.2 kmh NE 10.0 mph16.1 kmh 30.30 in1026.1 mb 0.00 in0.0 mm 0.00 in0.0 mm 0.00 in0.0 mm
08:35 AM 36.4°F2.4°C 28.9°F-1.7°C 74% 4.0 mph NE6.4 kmh NE 9.0 mph14.5 kmh 30.30 in1026.1 mb 0.00 in0.0 mm 0.00 in0.0 mm 0.00 in0.0 mm
08:40 AM 36.4°F2.4°C 28.9°F-1.7°C 74% 4.0 mph NNE6.4 kmh NNE 10.0 mph16.1 kmh 30.31 in1026.4 mb 0.00 in0.0 mm 0.00 in0.0 mm 0.00 in0.0 mm
08:45 AM 36.4°F2.4°C 28.9°F-1.7°C 74% 5.1 mph NE8.2 kmh NE 11.0 mph17.7 kmh 30.31 in1026.4 mb 0.00 in0.0 mm 0.00 in0.0 mm 0.00 in0.0 mm
08:50 AM 36.4°F2.4°C 28.9°F-1.7°C 74% 4.8 mph NE7.7 kmh NE 11.0 mph17.7 kmh 30.32 in1026.8 mb 0.00 in0.0 mm 0.00 in0.0 mm 0.00 in0.0 mm
08:55 AM 36.5°F2.5°C 29.0°F-1.7°C 74% 4.4 mph NE7.1 kmh NE 11.0 mph17.7 kmh 30.32 in1026.8 mb 0.00 in0.0 mm 0.00 in0.0 mm 0.00 in0.0 mm
09:00 AM 36.6°F2.6°C 28.8°F-1.8°C 73% 3.8 mph NE6.1 kmh NE 9.0 mph14.5 kmh 30.32 in1026.8 mb 0.00 in0.0 mm 0.00 in0.0 mm 0.00 in0.0 mm
09:05 AM 36.6°F2.6°C 28.8°F-1.8°C 73% 4.2 mph NNE6.8 kmh NNE 9.0 mph14.5 kmh 30.32 in1026.8 mb 0.00 in0.0 mm 0.00 in0.0 mm 0.00 in0.0 mm
09:10 AM 36.6°F2.6°C 29.1°F-1.6°C 74% 4.9 mph NNE7.9 kmh NNE 11.0 mph17.7 kmh 30.33 in1027.1 mb 0.00 in0.0 mm 0.00 in0.0 mm 0.00 in0.0 mm
09:15 AM 36.6°F2.6°C 29.1°F-1.6°C 74% 4.0 mph NE6.4 kmh NE 11.0 mph17.7 kmh 30.33 in1027.1 mb 0.00 in0.0 mm 0.00 in0.0 mm 0.00 in0.0 mm
09:20 AM 36.6°F2.6°C 28.8°F-1.8°C 73% 5.4 mph NE8.7 kmh NE 13.0 mph20.9 kmh 30.34 in1027.4 mb 0.00 in0.0 mm 0.00 in0.0 mm 0.00 in0.0 mm
09:25 AM 36.6°F2.6°C 28.8°F-1.8°C 73% 4.4 mph NE7.1 kmh NE 13.0 mph20.9 kmh 30.34 in1027.4 mb 0.00 in0.0 mm 0.00 in0.0 mm 0.00 in0.0 mm
09:30 AM 36.6°F2.6°C 28.8°F-1.8°C 73% 4.7 mph NE7.6 kmh NE 9.0 mph14.5 kmh 30.34 in1027.4 mb 0.00 in0.0 mm 0.00 in0.0 mm 0.00 in0.0 mm
09:35 AM 36.6°F2.6°C 28.8°F-1.8°C 73% 4.6 mph NE7.4 kmh NE 9.0 mph14.5 kmh 30.34 in1027.4 mb 0.00 in0.0 mm 0.00 in0.0 mm 0.00 in0.0 mm
09:40 AM 36.5°F2.5°C 28.7°F-1.8°C 73% 6.9 mph NE11.1 kmh NE 13.0 mph20.9 kmh 30.34 in1027.4 mb 0.00 in0.0 mm 0.00 in0.0 mm 0.00 in0.0 mm
09:45 AM 36.5°F2.5°C 28.7°F-1.8°C 73% 4.3 mph NE6.9 kmh NE 13.0 mph20.9 kmh 30.35 in1027.8 mb 0.00 in0.0 mm 0.00 in0.0 mm 0.00 in0.0 mm
09:50 AM 36.6°F2.6°C 28.8°F-1.8°C 73% 3.8 mph NE6.1 kmh NE 10.0 mph16.1 kmh 30.35 in1027.8 mb 0.00 in0.0 mm 0.00 in0.0 mm 0.00 in0.0 mm
09:55 AM 36.7°F2.6°C 28.9°F-1.7°C 73% 3.8 mph NE6.1 kmh NE 11.0 mph17.7 kmh 30.36 in1028.1 mb 0.00 in0.0 mm 0.00 in0.0 mm 0.00 in0.0 mm
10:00 AM 36.8°F2.7°C 28.6°F-1.9°C 72% 4.7 mph NE7.6 kmh NE 11.0 mph17.7 kmh 30.36 in1028.1 mb 0.00 in0.0 mm 0.00 in0.0 mm 0.00 in0.0 mm
10:05 AM 36.9°F2.7°C 28.7°F-1.8°C 72% 4.9 mph NE7.9 kmh NE 11.0 mph17.7 kmh 30.36 in1028.1 mb 0.00 in0.0 mm 0.00 in0.0 mm 0.00 in0.0 mm
10:10 AM 36.8°F2.7°C 28.6°F-1.9°C 72% 5.7 mph NNE9.2 kmh NNE 12.0 mph19.3 kmh 30.37 in1028.4 mb 0.00 in0.0 mm 0.00 in0.0 mm 0.00 in0.0 mm
10:15 AM 36.8°F2.7°C 28.6°F-1.9°C 72% 6.1 mph NE9.8 kmh NE 12.0 mph19.3 kmh 30.37 in1028.4 mb 0.00 in0.0 mm 0.00 in0.0 mm 0.00 in0.0 mm
10:20 AM 36.8°F2.7°C 28.6°F-1.9°C 72% 5.7 mph NE9.2 kmh NE 13.0 mph20.9 kmh 30.37 in1028.4 mb 0.00 in0.0 mm 0.00 in0.0 mm 0.00 in0.0 mm
10:25 AM 36.9°F2.7°C 28.4°F-2.0°C 71% 5.5 mph NE8.9 kmh NE 13.0 mph20.9 kmh 30.37 in1028.4 mb 0.00 in0.0 mm 0.00 in0.0 mm 0.00 in0.0 mm
10:30 AM 36.9°F2.7°C 28.4°F-2.0°C 71% 5.8 mph NNE9.3 kmh NNE 12.0 mph19.3 kmh 30.38 in1028.8 mb 0.00 in0.0 mm 0.00 in0.0 mm 0.00 in0.0 mm
10:35 AM 36.9°F2.7°C 28.4°F-2.0°C 71% 5.4 mph NE8.7 kmh NE 11.0 mph17.7 kmh 30.38 in1028.8 mb 0.00 in0.0 mm 0.00 in0.0 mm 0.00 in0.0 mm
10:40 AM 36.9°F2.7°C 28.4°F-2.0°C 71% 6.6 mph NE10.6 kmh NE 12.0 mph19.3 kmh 30.38 in1028.8 mb 0.00 in0.0 mm 0.00 in0.0 mm 0.00 in0.0 mm
10:45 AM 36.9°F2.7°C 28.4°F-2.0°C 71% 6.1 mph NE9.8 kmh NE 12.0 mph19.3 kmh 30.38 in1028.8 mb 0.00 in0.0 mm 0.00 in0.0 mm 0.00 in0.0 mm
10:50 AM 37.1°F2.8°C 28.6°F-1.9°C 71% 5.1 mph NE8.2 kmh NE 12.0 mph19.3 kmh 30.39 in1029.1 mb 0.00 in0.0 mm 0.00 in0.0 mm 0.00 in0.0 mm
10:55 AM 37.1°F2.8°C 28.6°F-1.9°C 71% 5.3 mph NE8.5 kmh NE 11.0 mph17.7 kmh 30.39 in1029.1 mb 0.00 in0.0 mm 0.00 in0.0 mm 0.00 in0.0 mm
11:00 AM 37.2°F2.9°C 28.3°F-2.1°C 70% 6.4 mph NNE10.3 kmh NNE 12.0 mph19.3 kmh 30.39 in1029.1 mb 0.00 in0.0 mm 0.00 in0.0 mm 0.00 in0.0 mm
11:05 AM 37.3°F2.9°C 28.4°F-2.0°C 70% 6.0 mph NE9.7 kmh NE 14.0 mph22.5 kmh 30.39 in1029.1 mb 0.00 in0.0 mm 0.00 in0.0 mm 0.00 in0.0 mm
11:10 AM 37.6°F3.1°C 28.7°F-1.8°C 70% 3.9 mph NE6.3 kmh NE 14.0 mph22.5 kmh 30.39 in1029.1 mb 0.00 in0.0 mm 0.00 in0.0 mm 0.00 in0.0 mm
11:15 AM 37.7°F3.2°C 28.8°F-1.8°C 70% 5.3 mph NNE8.5 kmh NNE 10.0 mph16.1 kmh 30.39 in1029.1 mb 0.00 in0.0 mm 0.00 in0.0 mm 0.00 in0.0 mm
11:20 AM 37.5°F3.1°C 28.3°F-2.1°C 69% 6.7 mph NE10.8 kmh NE 12.0 mph19.3 kmh 30.39 in1029.1 mb 0.00 in0.0 mm 0.00 in0.0 mm 0.00 in0.0 mm
11:25 AM 37.7°F3.2°C 28.8°F-1.8°C 70% 5.4 mph NE8.7 kmh NE 12.0 mph19.3 kmh 30.39 in1029.1 mb 0.00 in0.0 mm 0.00 in0.0 mm 0.00 in0.0 mm
11:30 AM 37.6°F3.1°C 28.4°F-2.0°C 69% 7.0 mph NNE11.3 kmh NNE 12.0 mph19.3 kmh 30.39 in1029.1 mb 0.00 in0.0 mm 0.00 in0.0 mm 0.00 in0.0 mm
11:35 AM 37.7°F3.2°C 28.8°F-1.8°C 70% 5.1 mph NE8.2 kmh NE 13.0 mph20.9 kmh 30.39 in1029.1 mb 0.00 in0.0 mm 0.00 in0.0 mm 0.00 in0.0 mm
11:40 AM 37.7°F3.2°C 28.5°F-1.9°C 69% 6.2 mph NNE10.0 kmh NNE 13.0 mph20.9 kmh 30.39 in1029.1 mb 0.00 in0.0 mm 0.00 in0.0 mm 0.00 in0.0 mm
11:45 AM 37.7°F3.2°C 28.8°F-1.8°C 70% 4.6 mph NE7.4 kmh NE 12.0 mph19.3 kmh 30.39 in1029.1 mb 0.00 in0.0 mm 0.00 in0.0 mm 0.00 in0.0 mm
11:50 AM 37.9°F3.3°C 29.0°F-1.7°C 70% 4.5 mph NE7.2 kmh NE 10.0 mph16.1 kmh 30.38 in1028.8 mb 0.00 in0.0 mm 0.00 in0.0 mm 0.00 in0.0 mm
11:55 AM 37.9°F3.3°C 28.7°F-1.8°C 69% 5.4 mph NE8.7 kmh NE 12.0 mph19.3 kmh 30.38 in1028.8 mb 0.00 in0.0 mm 0.00 in0.0 mm 0.00 in0.0 mm
12:00 PM 37.9°F3.3°C 28.7°F-1.8°C 69% 5.6 mph NE9.0 kmh NE 12.0 mph19.3 kmh 30.39 in1029.1 mb 0.00 in0.0 mm 0.00 in0.0 mm 0.00 in0.0 mm
12:05 PM 38.0°F3.3°C 28.7°F-1.8°C 69% 4.4 mph NE7.1 kmh NE 11.0 mph17.7 kmh 30.38 in1028.8 mb 0.00 in0.0 mm 0.00 in0.0 mm 0.00 in0.0 mm
12:10 PM 38.0°F3.3°C 28.7°F-1.8°C 69% 3.9 mph NNE6.3 kmh NNE 10.0 mph16.1 kmh 30.38 in1028.8 mb 0.00 in0.0 mm 0.00 in0.0 mm 0.00 in0.0 mm
12:15 PM 37.9°F3.3°C 28.7°F-1.8°C 69% 5.3 mph NE8.5 kmh NE 10.0 mph16.1 kmh 30.38 in1028.8 mb 0.00 in0.0 mm 0.00 in0.0 mm 0.00 in0.0 mm
12:20 PM 38.2°F3.4°C 28.6°F-1.9°C 68% 5.4 mph NNE8.7 kmh NNE 10.0 mph16.1 kmh 30.38 in1028.8 mb 0.00 in0.0 mm 0.00 in0.0 mm 0.00 in0.0 mm
12:25 PM 38.3°F3.5°C 28.7°F-1.8°C 68% 4.5 mph NE7.2 kmh NE 10.0 mph16.1 kmh 30.38 in1028.8 mb 0.00 in0.0 mm 0.00 in0.0 mm 0.00 in0.0 mm
12:30 PM 38.2°F3.4°C 28.6°F-1.9°C 68% 4.9 mph NNE7.9 kmh NNE 10.0 mph16.1 kmh 30.38 in1028.8 mb 0.00 in0.0 mm 0.00 in0.0 mm 0.00 in0.0 mm
12:35 PM 38.4°F3.6°C 28.8°F-1.8°C 68% 5.0 mph NE8.0 kmh NE 10.0 mph16.1 kmh 30.37 in1028.4 mb 0.00 in0.0 mm 0.00 in0.0 mm 0.00 in0.0 mm
12:40 PM 38.3°F3.5°C 28.7°F-1.8°C 68% 5.4 mph NE8.7 kmh NE 10.0 mph16.1 kmh 30.38 in1028.8 mb 0.00 in0.0 mm 0.00 in0.0 mm 0.00 in0.0 mm
12:45 PM 38.4°F3.6°C 28.4°F-2.0°C 67% 6.0 mph NE9.7 kmh NE 10.0 mph16.1 kmh 30.37 in1028.4 mb 0.00 in0.0 mm 0.00 in0.0 mm 0.00 in0.0 mm
12:50 PM 38.8°F3.8°C 29.2°F-1.6°C 68% 3.5 mph NE5.6 kmh NE 10.0 mph16.1 kmh 30.37 in1028.4 mb 0.00 in0.0 mm 0.00 in0.0 mm 0.00 in0.0 mm
12:55 PM 38.8°F3.8°C 28.8°F-1.8°C 67% 4.7 mph NE7.6 kmh NE 9.0 mph14.5 kmh 30.37 in1028.4 mb 0.00 in0.0 mm 0.00 in0.0 mm 0.00 in0.0 mm
01:00 PM 38.9°F3.8°C 28.9°F-1.7°C 67% 3.5 mph NE5.6 kmh NE 9.0 mph14.5 kmh 30.37 in1028.4 mb 0.00 in0.0 mm 0.00 in0.0 mm 0.00 in0.0 mm
01:05 PM 38.9°F3.8°C 28.9°F-1.7°C 67% 5.7 mph NNE9.2 kmh NNE 11.0 mph17.7 kmh 30.37 in1028.4 mb 0.00 in0.0 mm 0.00 in0.0 mm 0.00 in0.0 mm
01:10 PM 39.3°F4.1°C 29.3°F-1.5°C 67% 3.7 mph NE6.0 kmh NE 11.0 mph17.7 kmh 30.37 in1028.4 mb 0.00 in0.0 mm 0.00 in0.0 mm 0.00 in0.0 mm
01:15 PM 39.4°F4.1°C 29.4°F-1.4°C 67% 2.8 mph NE4.5 kmh NE 9.0 mph14.5 kmh 30.36 in1028.1 mb 0.00 in0.0 mm 0.00 in0.0 mm 0.00 in0.0 mm
01:20 PM 39.2°F4.0°C 29.2°F-1.6°C 67% 4.8 mph NNE7.7 kmh NNE 9.0 mph14.5 kmh 30.36 in1028.1 mb 0.00 in0.0 mm 0.00 in0.0 mm 0.00 in0.0 mm
01:25 PM 39.3°F4.1°C 29.3°F-1.5°C 67% 5.2 mph NNE8.4 kmh NNE 10.0 mph16.1 kmh 30.36 in1028.1 mb 0.00 in0.0 mm 0.00 in0.0 mm 0.00 in0.0 mm
01:30 PM 39.3°F4.1°C 28.9°F-1.7°C 66% 5.4 mph NE8.7 kmh NE 10.0 mph16.1 kmh 30.36 in1028.1 mb 0.00 in0.0 mm 0.00 in0.0 mm 0.00 in0.0 mm
01:35 PM 39.1°F3.9°C 28.7°F-1.8°C 66% 5.5 mph NE8.9 kmh NE 11.0 mph17.7 kmh 30.35 in1027.8 mb 0.00 in0.0 mm 0.00 in0.0 mm 0.00 in0.0 mm
01:40 PM 39.2°F4.0°C 28.8°F-1.8°C 66% 3.1 mph NE5.0 kmh NE 11.0 mph17.7 kmh 30.35 in1027.8 mb 0.00 in0.0 mm 0.00 in0.0 mm 0.00 in0.0 mm
01:45 PM 39.2°F4.0°C 29.2°F-1.6°C 67% 4.6 mph NNE7.4 kmh NNE 9.0 mph14.5 kmh 30.34 in1027.4 mb 0.00 in0.0 mm 0.00 in0.0 mm 0.00 in0.0 mm
01:50 PM 39.4°F4.1°C 29.4°F-1.4°C 67% 4.9 mph NE7.9 kmh NE 9.0 mph14.5 kmh 30.34 in1027.4 mb 0.00 in0.0 mm 0.00 in0.0 mm 0.00 in0.0 mm
01:55 PM 39.3°F4.1°C 28.9°F-1.7°C 66% 5.4 mph NE8.7 kmh NE 10.0 mph16.1 kmh 30.34 in1027.4 mb 0.00 in0.0 mm 0.00 in0.0 mm 0.00 in0.0 mm
02:00 PM 39.6°F4.2°C 29.2°F-1.6°C 66% 5.0 mph NNE8.0 kmh NNE 10.0 mph16.1 kmh 30.34 in1027.4 mb 0.00 in0.0 mm 0.00 in0.0 mm 0.00 in0.0 mm
02:05 PM 39.5°F4.2°C 29.1°F-1.6°C 66% 6.9 mph NE11.1 kmh NE 11.0 mph17.7 kmh 30.34 in1027.4 mb 0.00 in0.0 mm 0.00 in0.0 mm 0.00 in0.0 mm
02:10 PM 39.8°F4.3°C 29.8°F-1.2°C 67% 5.5 mph NNE8.9 kmh NNE 11.0 mph17.7 kmh 30.34 in1027.4 mb 0.00 in0.0 mm 0.00 in0.0 mm 0.00 in0.0 mm
02:15 PM 39.5°F4.2°C 28.7°F-1.8°C 65% 6.6 mph N10.6 kmh N 12.0 mph19.3 kmh 30.33 in1027.1 mb 0.00 in0.0 mm 0.00 in0.0 mm 0.00 in0.0 mm
02:20 PM 39.8°F4.3°C 29.8°F-1.2°C 67% 3.7 mph NE6.0 kmh NE 12.0 mph19.3 kmh 30.33 in1027.1 mb 0.00 in0.0 mm 0.00 in0.0 mm 0.00 in0.0 mm
02:25 PM 39.9°F4.4°C 29.5°F-1.4°C 66% 3.4 mph NE5.5 kmh NE 8.0 mph12.9 kmh 30.33 in1027.1 mb 0.00 in0.0 mm 0.00 in0.0 mm 0.00 in0.0 mm
02:30 PM 40.0°F4.4°C 29.9°F-1.2°C 67% 3.9 mph NE6.3 kmh NE 8.0 mph12.9 kmh 30.32 in1026.8 mb 0.00 in0.0 mm 0.00 in0.0 mm 0.00 in0.0 mm
02:35 PM 39.9°F4.4°C 29.5°F-1.4°C 66% 4.3 mph NE6.9 kmh NE 10.0 mph16.1 kmh 30.32 in1026.8 mb 0.00 in0.0 mm 0.00 in0.0 mm 0.00 in0.0 mm
02:40 PM 39.7°F4.3°C 29.3°F-1.5°C 66% 5.2 mph NE8.4 kmh NE 10.0 mph16.1 kmh 30.32 in1026.8 mb 0.00 in0.0 mm 0.00 in0.0 mm 0.00 in0.0 mm
02:45 PM 39.9°F4.4°C 29.5°F-1.4°C 66% 4.0 mph NE6.4 kmh NE 10.0 mph16.1 kmh 30.31 in1026.4 mb 0.00 in0.0 mm 0.00 in0.0 mm 0.00 in0.0 mm
02:50 PM 40.1°F4.5°C 29.7°F-1.3°C 66% 5.7 mph NNE9.2 kmh NNE 11.0 mph17.7 kmh 30.32 in1026.8 mb 0.00 in0.0 mm 0.00 in0.0 mm 0.00 in0.0 mm
02:55 PM 40.2°F4.6°C 29.8°F-1.2°C 66% 5.9 mph NNE9.5 kmh NNE 11.0 mph17.7 kmh 30.32 in1026.8 mb 0.00 in0.0 mm 0.00 in0.0 mm 0.00 in0.0 mm
03:00 PM 40.4°F4.7°C 29.6°F-1.3°C 65% 5.6 mph NNE9.0 kmh NNE 9.0 mph14.5 kmh 30.31 in1026.4 mb 0.00 in0.0 mm 0.00 in0.0 mm 0.00 in0.0 mm
03:05 PM 40.4°F4.7°C 30.0°F-1.1°C 66% 4.3 mph NNE6.9 kmh NNE 9.0 mph14.5 kmh 30.32 in1026.8 mb 0.00 in0.0 mm 0.00 in0.0 mm 0.00 in0.0 mm
03:10 PM 40.3°F4.6°C 29.5°F-1.4°C 65% 4.7 mph NE7.6 kmh NE 9.0 mph14.5 kmh 30.32 in1026.8 mb 0.00 in0.0 mm 0.00 in0.0 mm 0.00 in0.0 mm
03:15 PM 40.2°F4.6°C 29.4°F-1.4°C 65% 5.1 mph NNE8.2 kmh NNE 9.0 mph14.5 kmh 30.32 in1026.8 mb 0.00 in0.0 mm 0.00 in0.0 mm 0.00 in0.0 mm
03:20 PM 40.1°F4.5°C 29.3°F-1.5°C 65% 4.9 mph NNE7.9 kmh NNE 10.0 mph16.1 kmh 30.31 in1026.4 mb 0.00 in0.0 mm 0.00 in0.0 mm 0.00 in0.0 mm
03:25 PM 40.0°F4.4°C 29.6°F-1.3°C 66% 5.4 mph N8.7 kmh N 11.0 mph17.7 kmh 30.31 in1026.4 mb 0.00 in0.0 mm 0.00 in0.0 mm 0.00 in0.0 mm
03:30 PM 40.0°F4.4°C 29.2°F-1.6°C 65% 4.2 mph NE6.8 kmh NE 11.0 mph17.7 kmh 30.31 in1026.4 mb 0.00 in0.0 mm 0.00 in0.0 mm 0.00 in0.0 mm
03:35 PM 40.3°F4.6°C 29.9°F-1.2°C 66% 3.6 mph NE5.8 kmh NE 10.0 mph16.1 kmh 30.31 in1026.4 mb 0.00 in0.0 mm 0.00 in0.0 mm 0.00 in0.0 mm
03:40 PM 40.3°F4.6°C 29.5°F-1.4°C 65% 4.8 mph NNE7.7 kmh NNE 10.0 mph16.1 kmh 30.32 in1026.8 mb 0.00 in0.0 mm 0.00 in0.0 mm 0.00 in0.0 mm
03:45 PM 40.3°F4.6°C 29.5°F-1.4°C 65% 5.4 mph NNE8.7 kmh NNE 12.0 mph19.3 kmh 30.32 in1026.8 mb 0.00 in0.0 mm 0.00 in0.0 mm 0.00 in0.0 mm
03:50 PM 40.8°F4.9°C 30.0°F-1.1°C 65% 4.4 mph NNE7.1 kmh NNE 12.0 mph19.3 kmh 30.32 in1026.8 mb 0.00 in0.0 mm 0.00 in0.0 mm 0.00 in0.0 mm
03:55 PM 40.5°F4.7°C 29.7°F-1.3°C 65% 5.1 mph NE8.2 kmh NE 11.0 mph17.7 kmh 30.31 in1026.4 mb 0.00 in0.0 mm 0.00 in0.0 mm 0.00 in0.0 mm
04:00 PM 40.6°F4.8°C 29.8°F-1.2°C 65% 5.9 mph NE9.5 kmh NE 11.0 mph17.7 kmh 30.30 in1026.1 mb 0.00 in0.0 mm 0.00 in0.0 mm 0.00 in0.0 mm
04:05 PM 40.5°F4.7°C 29.3°F-1.5°C 64% 6.8 mph NE10.9 kmh NE 13.0 mph20.9 kmh 30.30 in1026.1 mb 0.00 in0.0 mm 0.00 in0.0 mm 0.00 in0.0 mm
04:10 PM 40.4°F4.7°C 29.2°F-1.6°C 64% 6.4 mph NE10.3 kmh NE 13.0 mph20.9 kmh 30.31 in1026.4 mb 0.00 in0.0 mm 0.00 in0.0 mm 0.00 in0.0 mm
04:15 PM 40.6°F4.8°C 29.4°F-1.4°C 64% 4.7 mph NE7.6 kmh NE 11.0 mph17.7 kmh 30.31 in1026.4 mb 0.00 in0.0 mm 0.00 in0.0 mm 0.00 in0.0 mm
04:20 PM 41.1°F5.1°C 30.2°F-1.0°C 65% 3.3 mph NE5.3 kmh NE 10.0 mph16.1 kmh 30.32 in1026.8 mb 0.00 in0.0 mm 0.00 in0.0 mm 0.00 in0.0 mm
04:25 PM 41.2°F5.1°C 30.0°F-1.1°C 64% 4.3 mph NE6.9 kmh NE 9.0 mph14.5 kmh 30.32 in1026.8 mb 0.00 in0.0 mm 0.00 in0.0 mm 0.00 in0.0 mm
04:30 PM 41.0°F5.0°C 29.8°F-1.2°C 64% 3.9 mph NE6.3 kmh NE 9.0 mph14.5 kmh 30.32 in1026.8 mb 0.00 in0.0 mm 0.00 in0.0 mm 0.00 in0.0 mm
04:35 PM 40.6°F4.8°C 29.4°F-1.4°C 64% 6.2 mph NNE10.0 kmh NNE 10.0 mph16.1 kmh 30.32 in1026.8 mb 0.00 in0.0 mm 0.00 in0.0 mm 0.00 in0.0 mm
04:40 PM 40.6°F4.8°C 29.4°F-1.4°C 64% 5.8 mph NNE9.3 kmh NNE 10.0 mph16.1 kmh 30.32 in1026.8 mb 0.00 in0.0 mm 0.00 in0.0 mm 0.00 in0.0 mm
04:45 PM 40.5°F4.7°C 29.3°F-1.5°C 64% 6.3 mph NE10.1 kmh NE 11.0 mph17.7 kmh 30.32 in1026.8 mb 0.00 in0.0 mm 0.00 in0.0 mm 0.00 in0.0 mm
04:50 PM 40.3°F4.6°C 29.5°F-1.4°C 65% 3.1 mph NE5.0 kmh NE 11.0 mph17.7 kmh 30.32 in1026.8 mb 0.00 in0.0 mm 0.00 in0.0 mm 0.00 in0.0 mm
04:55 PM 40.1°F4.5°C 28.9°F-1.7°C 64% 4.8 mph NNE7.7 kmh NNE 9.0 mph14.5 kmh 30.32 in1026.8 mb 0.00 in0.0 mm 0.00 in0.0 mm 0.00 in0.0 mm
05:00 PM 39.9°F4.4°C 28.7°F-1.8°C 64% 4.3 mph NNE6.9 kmh NNE 10.0 mph16.1 kmh 30.32 in1026.8 mb 0.00 in0.0 mm 0.00 in0.0 mm 0.00 in0.0 mm
05:05 PM 39.9°F4.4°C 29.1°F-1.6°C 65% 3.7 mph NNE6.0 kmh NNE 10.0 mph16.1 kmh 30.32 in1026.8 mb 0.00 in0.0 mm 0.00 in0.0 mm 0.00 in0.0 mm
05:10 PM 40.0°F4.4°C 29.2°F-1.6°C 65% 2.9 mph NE4.7 kmh NE 7.0 mph11.3 kmh 30.33 in1027.1 mb 0.00 in0.0 mm 0.00 in0.0 mm 0.00 in0.0 mm
05:15 PM 39.7°F4.3°C 28.9°F-1.7°C 65% 3.7 mph NE6.0 kmh NE 8.0 mph12.9 kmh 30.33 in1027.1 mb 0.00 in0.0 mm 0.00 in0.0 mm 0.00 in0.0 mm
05:20 PM 39.4°F4.1°C 28.6°F-1.9°C 65% 4.4 mph NNE7.1 kmh NNE 9.0 mph14.5 kmh 30.33 in1027.1 mb 0.00 in0.0 mm 0.00 in0.0 mm 0.00 in0.0 mm
05:25 PM 39.3°F4.1°C 28.9°F-1.7°C 66% 4.0 mph NE6.4 kmh NE 11.0 mph17.7 kmh 30.32 in1026.8 mb 0.00 in0.0 mm 0.00 in0.0 mm 0.00 in0.0 mm
05:30 PM 39.5°F4.2°C 29.1°F-1.6°C 66% 3.7 mph ENE6.0 kmh ENE 11.0 mph17.7 kmh 30.31 in1026.4 mb 0.00 in0.0 mm 0.00 in0.0 mm 0.00 in0.0 mm
05:35 PM 39.4°F4.1°C 29.0°F-1.7°C 66% 2.5 mph E4.0 kmh E 11.0 mph17.7 kmh 30.32 in1026.8 mb 0.00 in0.0 mm 0.00 in0.0 mm 0.00 in0.0 mm
05:40 PM 39.3°F4.1°C 28.9°F-1.7°C 66% 1.6 mph E2.6 kmh E 7.0 mph11.3 kmh 30.32 in1026.8 mb 0.00 in0.0 mm 0.00 in0.0 mm 0.00 in0.0 mm
05:45 PM 39.1°F3.9°C 28.7°F-1.8°C 66% 2.9 mph E4.7 kmh E 8.0 mph12.9 kmh 30.32 in1026.8 mb 0.00 in0.0 mm 0.00 in0.0 mm 0.00 in0.0 mm
05:50 PM 38.8°F3.8°C 28.4°F-2.0°C 66% 2.6 mph E4.2 kmh E 8.0 mph12.9 kmh 30.32 in1026.8 mb 0.00 in0.0 mm 0.00 in0.0 mm 0.00 in0.0 mm
05:55 PM 38.7°F3.7°C 28.7°F-1.8°C 67% 2.7 mph NE4.3 kmh NE 7.0 mph11.3 kmh 30.33 in1027.1 mb 0.00 in0.0 mm 0.00 in0.0 mm 0.00 in0.0 mm
06:00 PM 38.6°F3.7°C 28.6°F-1.9°C 67% 2.8 mph NE4.5 kmh NE 6.0 mph9.7 kmh 30.33 in1027.1 mb 0.00 in0.0 mm 0.00 in0.0 mm 0.00 in0.0 mm
06:05 PM 38.4°F3.6°C 28.4°F-2.0°C 67% 3.0 mph NE4.8 kmh NE 9.0 mph14.5 kmh 30.33 in1027.1 mb 0.00 in0.0 mm 0.00 in0.0 mm 0.00 in0.0 mm
06:10 PM 38.2°F3.4°C 27.9°F-2.3°C 66% 4.0 mph NE6.4 kmh NE 10.0 mph16.1 kmh 30.33 in1027.1 mb 0.00 in0.0 mm 0.00 in0.0 mm 0.00 in0.0 mm
06:15 PM 38.0°F3.3°C 28.0°F-2.2°C 67% 3.3 mph NE5.3 kmh NE 10.0 mph16.1 kmh 30.33 in1027.1 mb 0.00 in0.0 mm 0.00 in0.0 mm 0.00 in0.0 mm
06:20 PM 37.9°F3.3°C 27.9°F-2.3°C 67% 2.6 mph NE4.2 kmh NE 8.0 mph12.9 kmh 30.32 in1026.8 mb 0.00 in0.0 mm 0.00 in0.0 mm 0.00 in0.0 mm
06:25 PM 37.8°F3.2°C 27.8°F-2.3°C 67% 3.1 mph NE5.0 kmh NE 8.0 mph12.9 kmh 30.32 in1026.8 mb 0.00 in0.0 mm 0.00 in0.0 mm 0.00 in0.0 mm
06:30 PM 37.7°F3.2°C 27.7°F-2.4°C 67% 3.0 mph NE4.8 kmh NE 8.0 mph12.9 kmh 30.32 in1026.8 mb 0.00 in0.0 mm 0.00 in0.0 mm 0.00 in0.0 mm
06:35 PM 37.6°F3.1°C 27.7°F-2.4°C 67% 3.7 mph NE6.0 kmh NE 8.0 mph12.9 kmh 30.33 in1027.1 mb 0.00 in0.0 mm 0.00 in0.0 mm 0.00 in0.0 mm
06:40 PM 37.6°F3.1°C 28.0°F-2.2°C 68% 2.9 mph NE4.7 kmh NE 7.0 mph11.3 kmh 30.33 in1027.1 mb 0.00 in0.0 mm 0.00 in0.0 mm 0.00 in0.0 mm
06:45 PM 37.6°F3.1°C 28.0°F-2.2°C 68% 3.4 mph NE5.5 kmh NE 7.0 mph11.3 kmh 30.33 in1027.1 mb 0.00 in0.0 mm 0.00 in0.0 mm 0.00 in0.0 mm
06:50 PM 37.5°F3.1°C 27.6°F-2.4°C 67% 3.8 mph NE6.1 kmh NE 10.0 mph16.1 kmh 30.33 in1027.1 mb 0.00 in0.0 mm 0.00 in0.0 mm 0.00 in0.0 mm
06:55 PM 37.5°F3.1°C 27.6°F-2.4°C 67% 3.3 mph NE5.3 kmh NE 10.0 mph16.1 kmh 30.33 in1027.1 mb 0.00 in0.0 mm 0.00 in0.0 mm 0.00 in0.0 mm
07:00 PM 37.5°F3.1°C 27.6°F-2.4°C 67% 4.0 mph NNE6.4 kmh NNE 9.0 mph14.5 kmh 30.34 in1027.4 mb 0.00 in0.0 mm 0.00 in0.0 mm 0.00 in0.0 mm
07:05 PM 37.4°F3.0°C 27.5°F-2.5°C 67% 4.4 mph NE7.1 kmh NE 9.0 mph14.5 kmh 30.34 in1027.4 mb 0.00 in0.0 mm 0.00 in0.0 mm 0.00 in0.0 mm
07:10 PM 37.4°F3.0°C 27.5°F-2.5°C 67% 3.3 mph NE5.3 kmh NE 8.0 mph12.9 kmh 30.34 in1027.4 mb 0.00 in0.0 mm 0.00 in0.0 mm 0.00 in0.0 mm
07:15 PM 37.4°F3.0°C 27.5°F-2.5°C 67% 3.6 mph NNE5.8 kmh NNE 8.0 mph12.9 kmh 30.35 in1027.8 mb 0.00 in0.0 mm 0.00 in0.0 mm 0.00 in0.0 mm
07:20 PM 37.3°F2.9°C 27.0°F-2.8°C 66% 4.3 mph NE6.9 kmh NE 8.0 mph12.9 kmh 30.34 in1027.4 mb 0.00 in0.0 mm 0.00 in0.0 mm 0.00 in0.0 mm
07:25 PM 37.1°F2.8°C 27.2°F-2.7°C 67% 4.4 mph NNE7.1 kmh NNE 8.0 mph12.9 kmh 30.36 in1028.1 mb 0.00 in0.0 mm 0.00 in0.0 mm 0.00 in0.0 mm
07:30 PM 37.1°F2.8°C 27.2°F-2.7°C 67% 3.8 mph NE6.1 kmh NE 8.0 mph12.9 kmh 30.36 in1028.1 mb 0.00 in0.0 mm 0.00 in0.0 mm 0.00 in0.0 mm
07:35 PM 37.1°F2.8°C 27.2°F-2.7°C 67% 3.8 mph NNE6.1 kmh NNE 8.0 mph12.9 kmh 30.36 in1028.1 mb 0.00 in0.0 mm 0.00 in0.0 mm 0.00 in0.0 mm
07:40 PM 37.0°F2.8°C 27.1°F-2.7°C 67% 3.1 mph NE5.0 kmh NE 8.0 mph12.9 kmh 30.36 in1028.1 mb 0.00 in0.0 mm 0.00 in0.0 mm 0.00 in0.0 mm
07:45 PM 36.9°F2.7°C 26.6°F-3.0°C 66% 3.5 mph NE5.6 kmh NE 7.0 mph11.3 kmh 30.36 in1028.1 mb 0.00 in0.0 mm 0.00 in0.0 mm 0.00 in0.0 mm
07:50 PM 36.8°F2.7°C 26.5°F-3.1°C 66% 4.1 mph NNE6.6 kmh NNE 9.0 mph14.5 kmh 30.36 in1028.1 mb 0.00 in0.0 mm 0.00 in0.0 mm 0.00 in0.0 mm
07:55 PM 36.7°F2.6°C 26.4°F-3.1°C 66% 4.4 mph NNE7.1 kmh NNE 10.0 mph16.1 kmh 30.36 in1028.1 mb 0.00 in0.0 mm 0.00 in0.0 mm 0.00 in0.0 mm
08:00 PM 36.6°F2.6°C 26.3°F-3.2°C 66% 4.7 mph NE7.6 kmh NE 10.0 mph16.1 kmh 30.36 in1028.1 mb 0.00 in0.0 mm 0.00 in0.0 mm 0.00 in0.0 mm
08:05 PM 36.6°F2.6°C 26.3°F-3.2°C 66% 4.8 mph NNE7.7 kmh NNE 10.0 mph16.1 kmh 30.36 in1028.1 mb 0.00 in0.0 mm 0.00 in0.0 mm 0.00 in0.0 mm
08:10 PM 36.6°F2.6°C 26.3°F-3.2°C 66% 4.1 mph NNE6.6 kmh NNE 10.0 mph16.1 kmh 30.36 in1028.1 mb 0.00 in0.0 mm 0.00 in0.0 mm 0.00 in0.0 mm
08:15 PM 36.5°F2.5°C 26.2°F-3.2°C 66% 3.7 mph NNE6.0 kmh NNE 8.0 mph12.9 kmh 30.37 in1028.4 mb 0.00 in0.0 mm 0.00 in0.0 mm 0.00 in0.0 mm
08:20 PM 36.5°F2.5°C 26.2°F-3.2°C 66% 5.3 mph NE8.5 kmh NE 9.0 mph14.5 kmh 30.36 in1028.1 mb 0.00 in0.0 mm 0.00 in0.0 mm 0.00 in0.0 mm
08:25 PM 36.4°F2.4°C 26.1°F-3.3°C 66% 4.0 mph NE6.4 kmh NE 7.0 mph11.3 kmh 30.36 in1028.1 mb 0.00 in0.0 mm 0.00 in0.0 mm 0.00 in0.0 mm
08:30 PM 36.4°F2.4°C 26.1°F-3.3°C 66% 5.3 mph NE8.5 kmh NE 10.0 mph16.1 kmh 30.36 in1028.1 mb 0.00 in0.0 mm 0.00 in0.0 mm 0.00 in0.0 mm
08:35 PM 36.4°F2.4°C 26.1°F-3.3°C 66% 5.4 mph NNE8.7 kmh NNE 10.0 mph16.1 kmh 30.36 in1028.1 mb 0.00 in0.0 mm 0.00 in0.0 mm 0.00 in0.0 mm
08:40 PM 36.3°F2.4°C 26.0°F-3.3°C 66% 5.8 mph NE9.3 kmh NE 10.0 mph16.1 kmh 30.36 in1028.1 mb 0.00 in0.0 mm 0.00 in0.0 mm 0.00 in0.0 mm
08:45 PM 36.2°F2.3°C 26.0°F-3.3°C 66% 4.1 mph NE6.6 kmh NE 10.0 mph16.1 kmh 30.36 in1028.1 mb 0.00 in0.0 mm 0.00 in0.0 mm 0.00 in0.0 mm
08:50 PM 36.2°F2.3°C 26.3°F-3.2°C 67% 3.0 mph NE4.8 kmh NE 9.0 mph14.5 kmh 30.35 in1027.8 mb 0.00 in0.0 mm 0.00 in0.0 mm 0.00 in0.0 mm
08:55 PM 36.3°F2.4°C 26.4°F-3.1°C 67% 3.2 mph NE5.1 kmh NE 8.0 mph12.9 kmh 30.36 in1028.1 mb 0.00 in0.0 mm 0.00 in0.0 mm 0.00 in0.0 mm
09:00 PM 36.2°F2.3°C 26.0°F-3.3°C 66% 2.8 mph NE4.5 kmh NE 9.0 mph14.5 kmh 30.36 in1028.1 mb 0.00 in0.0 mm 0.00 in0.0 mm 0.00 in0.0 mm
09:05 PM 36.2°F2.3°C 26.3°F-3.2°C 67% 3.3 mph NE5.3 kmh NE 9.0 mph14.5 kmh 30.36 in1028.1 mb 0.00 in0.0 mm 0.00 in0.0 mm 0.00 in0.0 mm
09:10 PM 36.1°F2.3°C 26.2°F-3.2°C 67% 5.3 mph NE8.5 kmh NE 9.0 mph14.5 kmh 30.36 in1028.1 mb 0.00 in0.0 mm 0.00 in0.0 mm 0.00 in0.0 mm
09:15 PM 36.2°F2.3°C 26.3°F-3.2°C 67% 3.6 mph NE5.8 kmh NE 9.0 mph14.5 kmh 30.37 in1028.4 mb 0.00 in0.0 mm 0.00 in0.0 mm 0.00 in0.0 mm
09:20 PM 36.1°F2.3°C 25.9°F-3.4°C 66% 5.0 mph NNE8.0 kmh NNE 11.0 mph17.7 kmh 30.36 in1028.1 mb 0.00 in0.0 mm 0.00 in0.0 mm 0.00 in0.0 mm
09:25 PM 36.0°F2.2°C 25.8°F-3.4°C 66% 5.5 mph NE8.9 kmh NE 12.0 mph19.3 kmh 30.36 in1028.1 mb 0.00 in0.0 mm 0.00 in0.0 mm 0.00 in0.0 mm
09:30 PM 35.9°F2.2°C 26.0°F-3.3°C 67% 5.7 mph NE9.2 kmh NE 12.0 mph19.3 kmh 30.35 in1027.8 mb 0.00 in0.0 mm 0.00 in0.0 mm 0.00 in0.0 mm
09:35 PM 35.8°F2.1°C 25.9°F-3.4°C 67% 3.7 mph NE6.0 kmh NE 10.0 mph16.1 kmh 30.34 in1027.4 mb 0.00 in0.0 mm 0.00 in0.0 mm 0.00 in0.0 mm
09:40 PM 35.6°F2.0°C 25.7°F-3.5°C 67% 3.9 mph NE6.3 kmh NE 9.0 mph14.5 kmh 30.35 in1027.8 mb 0.00 in0.0 mm 0.00 in0.0 mm 0.00 in0.0 mm
09:45 PM 35.5°F1.9°C 25.6°F-3.6°C 67% 5.0 mph NE8.0 kmh NE 10.0 mph16.1 kmh 30.35 in1027.8 mb 0.00 in0.0 mm 0.00 in0.0 mm 0.00 in0.0 mm
09:50 PM 35.5°F1.9°C 25.6°F-3.6°C 67% 4.9 mph NE7.9 kmh NE 10.0 mph16.1 kmh 30.34 in1027.4 mb 0.00 in0.0 mm 0.00 in0.0 mm 0.00 in0.0 mm
09:55 PM 35.4°F1.9°C 25.6°F-3.6°C 67% 4.8 mph NE7.7 kmh NE 10.0 mph16.1 kmh 30.35 in1027.8 mb 0.00 in0.0 mm 0.00 in0.0 mm 0.00 in0.0 mm
10:00 PM 35.4°F1.9°C 25.6°F-3.6°C 67% 4.2 mph NE6.8 kmh NE 9.0 mph14.5 kmh 30.36 in1028.1 mb 0.00 in0.0 mm 0.00 in0.0 mm 0.00 in0.0 mm
10:05 PM 35.4°F1.9°C 25.6°F-3.6°C 67% 4.9 mph NE7.9 kmh NE 9.0 mph14.5 kmh 30.36 in1028.1 mb 0.00 in0.0 mm 0.00 in0.0 mm 0.00 in0.0 mm
10:10 PM 35.5°F1.9°C 25.6°F-3.6°C 67% 4.3 mph NE6.9 kmh NE 12.0 mph19.3 kmh 30.37 in1028.4 mb 0.00 in0.0 mm 0.00 in0.0 mm 0.00 in0.0 mm
10:15 PM 35.5°F1.9°C 25.6°F-3.6°C 67% 3.9 mph NNE6.3 kmh NNE 12.0 mph19.3 kmh 30.37 in1028.4 mb 0.00 in0.0 mm 0.00 in0.0 mm 0.00 in0.0 mm
10:20 PM 35.6°F2.0°C 25.7°F-3.5°C 67% 3.8 mph N6.1 kmh N 8.0 mph12.9 kmh 30.37 in1028.4 mb 0.00 in0.0 mm 0.00 in0.0 mm 0.00 in0.0 mm
10:25 PM 35.7°F2.1°C 25.8°F-3.4°C 67% 3.8 mph NNE6.1 kmh NNE 8.0 mph12.9 kmh 30.38 in1028.8 mb 0.00 in0.0 mm 0.00 in0.0 mm 0.00 in0.0 mm
10:30 PM 35.7°F2.1°C 25.8°F-3.4°C 67% 3.8 mph NE6.1 kmh NE 8.0 mph12.9 kmh 30.38 in1028.8 mb 0.00 in0.0 mm 0.00 in0.0 mm 0.00 in0.0 mm
10:35 PM 35.7°F2.1°C 25.8°F-3.4°C 67% 4.1 mph NNE6.6 kmh NNE 8.0 mph12.9 kmh 30.37 in1028.4 mb 0.00 in0.0 mm 0.00 in0.0 mm 0.00 in0.0 mm
10:40 PM 35.7°F2.1°C 25.8°F-3.4°C 67% 4.2 mph NNE6.8 kmh NNE 8.0 mph12.9 kmh 30.37 in1028.4 mb 0.00 in0.0 mm 0.00 in0.0 mm 0.00 in0.0 mm
10:45 PM 35.6°F2.0°C 25.7°F-3.5°C 67% 4.4 mph NNE7.1 kmh NNE 7.0 mph11.3 kmh 30.37 in1028.4 mb 0.00 in0.0 mm 0.00 in0.0 mm 0.00 in0.0 mm
10:50 PM 35.6°F2.0°C 25.7°F-3.5°C 67% 4.4 mph NE7.1 kmh NE 8.0 mph12.9 kmh 30.37 in1028.4 mb 0.00 in0.0 mm 0.00 in0.0 mm 0.00 in0.0 mm
10:55 PM 35.5°F1.9°C 25.6°F-3.6°C 67% 3.4 mph NE5.5 kmh NE 9.0 mph14.5 kmh 30.37 in1028.4 mb 0.00 in0.0 mm 0.00 in0.0 mm 0.00 in0.0 mm
11:00 PM 35.5°F1.9°C 26.0°F-3.3°C 68% 3.5 mph NE5.6 kmh NE 9.0 mph14.5 kmh 30.36 in1028.1 mb 0.00 in0.0 mm 0.00 in0.0 mm 0.00 in0.0 mm
11:05 PM 35.5°F1.9°C 26.0°F-3.3°C 68% 2.4 mph NE3.9 kmh NE 7.0 mph11.3 kmh 30.36 in1028.1 mb 0.00 in0.0 mm 0.00 in0.0 mm 0.00 in0.0 mm
11:10 PM 35.5°F1.9°C 25.6°F-3.6°C 67% 4.0 mph NE6.4 kmh NE 9.0 mph14.5 kmh 30.36 in1028.1 mb 0.00 in0.0 mm 0.00 in0.0 mm 0.00 in0.0 mm
11:15 PM 35.3°F1.8°C 25.5°F-3.6°C 67% 3.6 mph NE5.8 kmh NE 9.0 mph14.5 kmh 30.36 in1028.1 mb 0.00 in0.0 mm 0.00 in0.0 mm 0.00 in0.0 mm
11:20 PM 35.2°F1.8°C 25.4°F-3.7°C 67% 4.2 mph NE6.8 kmh NE 9.0 mph14.5 kmh 30.36 in1028.1 mb 0.00 in0.0 mm 0.00 in0.0 mm 0.00 in0.0 mm
11:25 PM 35.2°F1.8°C 25.4°F-3.7°C 67% 4.0 mph NE6.4 kmh NE 9.0 mph14.5 kmh 30.36 in1028.1 mb 0.00 in0.0 mm 0.00 in0.0 mm 0.00 in0.0 mm
11:30 PM 35.2°F1.8°C 25.7°F-3.5°C 68% 2.5 mph ENE4.0 kmh ENE 7.0 mph11.3 kmh 30.35 in1027.8 mb 0.00 in0.0 mm 0.00 in0.0 mm 0.00 in0.0 mm
11:35 PM 35.2°F1.8°C 25.7°F-3.5°C 68% 3.0 mph NE4.8 kmh NE 7.0 mph11.3 kmh 30.35 in1027.8 mb 0.00 in0.0 mm 0.00 in0.0 mm 0.00 in0.0 mm
11:40 PM 35.2°F1.8°C 25.4°F-3.7°C 67% 3.9 mph NNE6.3 kmh NNE 10.0 mph16.1 kmh 30.35 in1027.8 mb 0.00 in0.0 mm 0.00 in0.0 mm 0.00 in0.0 mm
11:45 PM 35.1°F1.7°C 25.3°F-3.7°C 67% 4.3 mph NE6.9 kmh NE 10.0 mph16.1 kmh 30.35 in1027.8 mb 0.00 in0.0 mm 0.00 in0.0 mm 0.00 in0.0 mm
11:50 PM 35.0°F1.7°C 25.2°F-3.8°C 67% 4.0 mph NNE6.4 kmh NNE 8.0 mph12.9 kmh 30.35 in1027.8 mb 0.00 in0.0 mm 0.00 in0.0 mm 0.00 in0.0 mm
11:55 PM 35.0°F1.7°C 25.5°F-3.6°C 68% 3.8 mph NE6.1 kmh NE 9.0 mph14.5 kmh 30.35 in1027.8 mb 0.00 in0.0 mm 0.00 in0.0 mm 0.00 in0.0 mm